createdAt,value
2019-01-15T00:00:29.222Z,97003.00
2019-01-15T00:02:57.177Z,97014.00
2019-01-15T00:05:24.939Z,97019.00
2019-01-15T00:07:52.735Z,97014.00
2019-01-15T00:10:20.577Z,97009.00
2019-01-15T00:12:48.364Z,97020.00
2019-01-15T00:15:16.128Z,97004.00
2019-01-15T00:17:44.988Z,97009.00
2019-01-15T00:20:13.015Z,97003.00
2019-01-15T00:22:42.109Z,97003.00
2019-01-15T00:25:10.305Z,97004.00
2019-01-15T00:27:38.201Z,97009.00
2019-01-15T00:30:08.268Z,97016.00
2019-01-15T00:32:36.114Z,97018.00
2019-01-15T00:35:05.949Z,97023.00
2019-01-15T00:37:33.720Z,97020.00
2019-01-15T00:40:03.291Z,97031.00
2019-01-15T00:42:32.053Z,97037.00
2019-01-15T00:45:00.461Z,97027.00
2019-01-15T00:47:28.172Z,97034.00
2019-01-15T00:49:56.237Z,97020.00
2019-01-15T00:52:23.906Z,97025.00
2019-01-15T00:54:51.875Z,97041.00
2019-01-15T00:57:19.630Z,97050.00
2019-01-15T00:59:47.332Z,97037.00
2019-01-15T01:02:15.618Z,96922.00
2019-01-15T01:04:43.428Z,97051.00
2019-01-15T01:07:11.215Z,97064.00
2019-01-15T01:09:39.041Z,97059.00
2019-01-15T01:12:07.140Z,97061.00
2019-01-15T01:14:34.847Z,97058.00
2019-01-15T01:17:02.822Z,97062.00
2019-01-15T01:19:30.614Z,97071.00
2019-01-15T01:21:58.576Z,97061.00
2019-01-15T01:24:26.283Z,97089.00
2019-01-15T01:26:54.238Z,97067.00
2019-01-15T01:29:22.560Z,97064.00
2019-01-15T01:31:50.360Z,97062.00
2019-01-15T01:34:18.047Z,97066.00
2019-01-15T01:36:46.099Z,97081.00
2019-01-15T01:39:13.788Z,97067.00
2019-01-15T01:41:41.496Z,97071.00
2019-01-15T01:44:09.567Z,97068.00
2019-01-15T01:46:37.241Z,97084.00
2019-01-15T01:49:05.017Z,97074.00
2019-01-15T01:51:32.983Z,97061.00
2019-01-15T01:54:00.568Z,97065.00
2019-01-15T01:56:28.456Z,97072.00
2019-01-15T01:58:56.280Z,97071.00
2019-01-15T02:01:24.073Z,97075.00
2019-01-15T02:03:51.864Z,97074.00
2019-01-15T02:06:19.627Z,97066.00
2019-01-15T02:08:47.690Z,97064.00
2019-01-15T02:11:15.472Z,97065.00
2019-01-15T02:13:44.734Z,97073.00
2019-01-15T02:16:12.536Z,97072.00
2019-01-15T02:18:40.267Z,97073.00
2019-01-15T02:21:07.922Z,97081.00
2019-01-15T02:23:35.963Z,97082.00
2019-01-15T02:26:03.995Z,97114.00
2019-01-15T02:28:31.767Z,97086.00
2019-01-15T02:30:59.670Z,97094.00
2019-01-15T02:33:27.275Z,97098.00
2019-01-15T02:35:55.060Z,97099.00
2019-01-15T02:38:22.959Z,97094.00
2019-01-15T02:40:50.653Z,97094.00
2019-01-15T02:43:18.414Z,97103.00
2019-01-15T02:45:46.098Z,97086.00
2019-01-15T02:48:13.741Z,97081.00
2019-01-15T02:50:41.852Z,97085.00
2019-01-15T02:53:09.875Z,97095.00
2019-01-15T02:55:37.669Z,97092.00
2019-01-15T02:58:05.457Z,97095.00
2019-01-15T03:00:33.396Z,97103.00
2019-01-15T03:03:01.330Z,97098.00
2019-01-15T03:05:29.106Z,97104.00
2019-01-15T03:07:56.854Z,97096.00
2019-01-15T03:10:24.637Z,97095.00
2019-01-15T03:12:56.819Z,97101.00
2019-01-15T03:15:23.158Z,97095.00
2019-01-15T03:17:51.562Z,97101.00
2019-01-15T03:20:19.627Z,97106.00
2019-01-15T03:22:47.648Z,97125.00
2019-01-15T03:25:16.531Z,97104.00
2019-01-15T03:27:44.282Z,97100.00
2019-01-15T03:30:18.887Z,97104.00
2019-01-15T03:32:46.790Z,97109.00
2019-01-15T03:35:15.169Z,97100.00
2019-01-15T03:37:42.902Z,97106.00
2019-01-15T03:40:17.675Z,97112.00
2019-01-15T03:42:46.472Z,97089.00
2019-01-15T03:45:14.453Z,97097.00
2019-01-15T03:47:42.203Z,97105.00
2019-01-15T03:50:10.143Z,97093.00
2019-01-15T03:52:38.159Z,97094.00
2019-01-15T03:55:06.420Z,97088.00
2019-01-15T03:57:34.234Z,97093.00
2019-01-15T04:00:02.387Z,97111.00
2019-01-15T04:02:30.526Z,97094.00
2019-01-15T04:04:58.496Z,97114.00
2019-01-15T04:07:26.676Z,97109.00
2019-01-15T04:09:54.635Z,97123.00
2019-01-15T04:12:22.651Z,97111.00
2019-01-15T04:14:51.128Z,97107.00
2019-01-15T04:17:18.910Z,97112.00
2019-01-15T04:19:46.923Z,97135.00
2019-01-15T04:22:14.709Z,97127.00
2019-01-15T04:24:42.740Z,97130.00
2019-01-15T04:27:10.812Z,97119.00
2019-01-15T04:29:38.747Z,97113.00
2019-01-15T04:32:06.486Z,97117.00
2019-01-15T04:34:34.168Z,97110.00
2019-01-15T04:37:01.917Z,97116.00
2019-01-15T04:39:29.888Z,97118.00
2019-01-15T04:41:57.881Z,97112.00
2019-01-15T04:44:25.839Z,97122.00
2019-01-15T04:46:53.705Z,97130.00
2019-01-15T04:49:21.516Z,97133.00
2019-01-15T04:51:49.478Z,97112.00
2019-01-15T04:54:17.819Z,97117.00
2019-01-15T04:56:47.258Z,97122.00
2019-01-15T04:59:15.126Z,97117.00
2019-01-15T05:01:42.664Z,97120.00
2019-01-15T05:04:10.648Z,97130.00
2019-01-15T05:06:38.669Z,97126.00
2019-01-15T05:09:07.506Z,97115.00
2019-01-15T05:11:35.266Z,97110.00
2019-01-15T05:14:03.315Z,97111.00
2019-01-15T05:16:31.068Z,97096.00
2019-01-15T05:18:58.548Z,97096.00
2019-01-15T05:21:26.231Z,97092.00
2019-01-15T05:23:53.922Z,97088.00
2019-01-15T05:26:21.670Z,97104.00
2019-01-15T05:28:49.656Z,97113.00
2019-01-15T05:31:17.764Z,97114.00
2019-01-15T05:33:45.856Z,97110.00
2019-01-15T05:36:14.637Z,97116.00
2019-01-15T05:38:42.744Z,97126.00
2019-01-15T05:41:10.528Z,97126.00
2019-01-15T05:43:38.503Z,97120.00
2019-01-15T05:46:06.209Z,97122.00
2019-01-15T05:48:35.923Z,97134.00
2019-01-15T05:51:26.444Z,97143.00
2019-01-15T05:53:54.224Z,97143.00
2019-01-15T05:56:21.979Z,97131.00
2019-01-15T05:58:49.788Z,97143.00
2019-01-15T06:01:17.337Z,97152.00
2019-01-15T06:03:45.020Z,97141.00
2019-01-15T06:06:12.682Z,97143.00
2019-01-15T06:08:40.243Z,97130.00
2019-01-15T06:11:08.335Z,97127.00
2019-01-15T06:13:42.470Z,97117.00
2019-01-15T06:16:05.837Z,97127.00
2019-01-15T06:18:33.872Z,97133.00
2019-01-15T06:21:01.871Z,97133.00
2019-01-15T06:23:29.656Z,97127.00
2019-01-15T06:25:57.818Z,97130.00
2019-01-15T06:28:26.581Z,97138.00
2019-01-15T06:30:54.486Z,97126.00
2019-01-15T06:33:22.245Z,97135.00
2019-01-15T06:35:50.326Z,97136.00
2019-01-15T06:38:18.146Z,97146.00
2019-01-15T06:40:46.017Z,97139.00
2019-01-15T06:43:14.026Z,97132.00
2019-01-15T06:45:41.707Z,97135.00
2019-01-15T06:48:09.486Z,97139.00
2019-01-15T06:50:37.208Z,97140.00
2019-01-15T06:53:05.238Z,97145.00
2019-01-15T06:55:33.068Z,97144.00
2019-01-15T06:58:00.869Z,97143.00
2019-01-15T07:00:28.671Z,97140.00
2019-01-15T07:02:56.669Z,97154.00
2019-01-15T07:05:24.440Z,97154.00
2019-01-15T07:07:52.206Z,97160.00
2019-01-15T07:10:26.769Z,97158.00
2019-01-15T07:12:54.677Z,97161.00
2019-01-15T07:15:22.583Z,97159.00
2019-01-15T07:17:50.147Z,97160.00
2019-01-15T07:20:18.026Z,97163.00
2019-01-15T07:22:45.802Z,97150.00
2019-01-15T07:25:15.103Z,97162.00
2019-01-15T07:27:42.928Z,97170.00
2019-01-15T07:30:38.449Z,97178.00
2019-01-15T07:33:07.395Z,97167.00
2019-01-15T07:35:35.178Z,97157.00
2019-01-15T07:38:03.263Z,97173.00
2019-01-15T07:40:30.948Z,97184.00
2019-01-15T07:42:58.756Z,97165.00
2019-01-15T07:45:26.564Z,97183.00
2019-01-15T07:47:54.224Z,97179.00
2019-01-15T07:50:21.919Z,97189.00
2019-01-15T07:52:49.818Z,97196.00
2019-01-15T07:55:17.745Z,97185.00
2019-01-15T07:57:45.735Z,97188.00
2019-01-15T08:00:16.886Z,97183.00
2019-01-15T08:02:44.777Z,97187.00
2019-01-15T08:05:13.904Z,97182.00
2019-01-15T08:07:41.716Z,97186.00
2019-01-15T08:10:11.754Z,97188.00
2019-01-15T08:12:39.500Z,97187.00
2019-01-15T08:15:10.172Z,97180.00
2019-01-15T08:17:38.058Z,97180.00
2019-01-15T08:20:06.866Z,97179.00
2019-01-15T08:22:35.967Z,97173.00
2019-01-15T08:25:04.816Z,97167.00
2019-01-15T08:27:32.596Z,97183.00
2019-01-15T08:30:00.383Z,97174.00
2019-01-15T08:32:28.229Z,97186.00
2019-01-15T08:34:56.010Z,97186.00
2019-01-15T08:37:23.810Z,97192.00
2019-01-15T08:39:51.485Z,97199.00
2019-01-15T08:42:19.494Z,97210.00
2019-01-15T08:44:47.376Z,97222.00
2019-01-15T08:47:15.832Z,97202.00
2019-01-15T08:49:43.516Z,97203.00
2019-01-15T08:52:11.176Z,97199.00
2019-01-15T08:54:39.016Z,97197.00
2019-01-15T08:57:07.132Z,97199.00
2019-01-15T08:59:34.982Z,97195.00
2019-01-15T09:02:02.810Z,97196.00
2019-01-15T09:04:30.839Z,97183.00
2019-01-15T09:06:58.436Z,97192.00
2019-01-15T09:09:26.111Z,97196.00
2019-01-15T09:11:53.894Z,97207.00
2019-01-15T09:14:26.755Z,97206.00
2019-01-15T09:16:51.587Z,97205.00
2019-01-15T09:19:19.348Z,97218.00
2019-01-15T09:21:47.066Z,97202.00
2019-01-15T09:24:14.825Z,97199.00
2019-01-15T09:26:42.611Z,97184.00
2019-01-15T09:29:10.395Z,97191.00
2019-01-15T09:31:38.281Z,97195.00
2019-01-15T09:34:06.160Z,97202.00
2019-01-15T09:36:34.223Z,97199.00
2019-01-15T09:39:04.333Z,97213.00
2019-01-15T09:41:33.561Z,97193.00
2019-01-15T09:44:01.328Z,97188.00
2019-01-15T09:46:29.140Z,97180.00
2019-01-15T09:48:56.813Z,97183.00
2019-01-15T09:51:24.639Z,97182.00
2019-01-15T09:53:52.386Z,97174.00
2019-01-15T09:56:20.085Z,97171.00
2019-01-15T09:58:48.034Z,97163.00
2019-01-15T10:01:15.828Z,97163.00
2019-01-15T10:03:43.479Z,97164.00
2019-01-15T10:06:11.167Z,97160.00
2019-01-15T10:08:38.938Z,97164.00
2019-01-15T10:11:07.007Z,97162.00
2019-01-15T10:13:34.763Z,97149.00
2019-01-15T10:16:02.924Z,97152.00
2019-01-15T10:18:30.973Z,97141.00
2019-01-15T10:20:58.753Z,97148.00
2019-01-15T10:23:26.461Z,97135.00
2019-01-15T10:25:54.348Z,97135.00
2019-01-15T10:28:22.408Z,97121.00
2019-01-15T10:32:01.667Z,97115.00
2019-01-15T10:34:37.711Z,97106.00
2019-01-15T10:37:04.300Z,97104.00
2019-01-15T10:39:32.071Z,97097.00
2019-01-15T10:42:00.132Z,97096.00
2019-01-15T10:44:27.993Z,97099.00
2019-01-15T10:46:55.852Z,97086.00
2019-01-15T10:49:23.522Z,97092.00
2019-01-15T10:51:51.315Z,97092.00
2019-01-15T10:54:19.012Z,97086.00
2019-01-15T10:56:46.784Z,97090.00
2019-01-15T10:59:14.592Z,97099.00
2019-01-15T11:01:42.367Z,97109.00
2019-01-15T11:04:10.159Z,97101.00
2019-01-15T11:06:37.941Z,97091.00
2019-01-15T11:09:08.406Z,97092.00
2019-01-15T11:11:36.160Z,97088.00
2019-01-15T11:14:04.442Z,97083.00
2019-01-15T11:16:32.278Z,97074.00
2019-01-15T11:19:00.070Z,97068.00
2019-01-15T11:21:28.118Z,97050.00
2019-01-15T11:23:55.812Z,97065.00
2019-01-15T11:26:23.811Z,97068.00
2019-01-15T11:28:52.001Z,97082.00
2019-01-15T11:31:20.025Z,97065.00
2019-01-15T11:33:47.813Z,97072.00
2019-01-15T11:36:15.592Z,97059.00
2019-01-15T11:38:44.462Z,97064.00
2019-01-15T11:41:12.220Z,97061.00
2019-01-15T11:43:39.831Z,97070.00
2019-01-15T11:46:07.618Z,97067.00
2019-01-15T11:48:35.407Z,97057.00
2019-01-15T11:51:03.280Z,97063.00
2019-01-15T11:53:30.970Z,97063.00
2019-01-15T11:55:59.001Z,97062.00
2019-01-15T11:58:27.798Z,97066.00
2019-01-15T12:01:00.535Z,97062.00
2019-01-15T12:03:56.656Z,97068.00
2019-01-15T12:06:42.464Z,97047.00
2019-01-15T12:09:42.211Z,97042.00
2019-01-15T12:12:29.542Z,97059.00
2019-01-15T12:15:14.628Z,97055.00
2019-01-15T12:18:11.921Z,97045.00
2019-01-15T12:20:58.502Z,97053.00
2019-01-15T12:23:44.200Z,97051.00
2019-01-15T12:26:46.286Z,97055.00
2019-01-15T12:29:32.233Z,97057.00
2019-01-15T12:32:12.278Z,97054.00
2019-01-15T12:34:52.119Z,97035.00
2019-01-15T12:37:40.348Z,97025.00
2019-01-15T12:40:30.204Z,97022.00
2019-01-15T12:43:20.492Z,97026.00
2019-01-15T12:45:56.396Z,97033.00
2019-01-15T12:48:42.716Z,97042.00
2019-01-15T12:51:29.789Z,97053.00
2019-01-15T12:54:17.557Z,97055.00
2019-01-15T12:57:03.288Z,97040.00
2019-01-15T12:59:53.612Z,97040.00
2019-01-15T13:02:43.859Z,97034.00
2019-01-15T13:05:43.069Z,97030.00
2019-01-15T13:08:25.894Z,97038.00
2019-01-15T13:11:11.532Z,97009.00
2019-01-15T13:14:01.723Z,97024.00
2019-01-15T13:17:06.952Z,97012.00
2019-01-15T13:19:54.202Z,97005.00
2019-01-15T13:22:50.616Z,96993.00
2019-01-15T13:25:36.773Z,97010.00
2019-01-15T13:28:42.935Z,97001.00
2019-01-15T13:31:20.902Z,97011.00
2019-01-15T13:34:10.926Z,97030.00
2019-01-15T13:36:44.764Z,97013.00
2019-01-15T13:39:50.008Z,97012.00
2019-01-15T13:42:40.085Z,97007.00
2019-01-15T13:45:21.990Z,97010.00
2019-01-15T13:48:12.235Z,97026.00
2019-01-15T13:50:57.958Z,97005.00
2019-01-15T13:53:57.093Z,97013.00
2019-01-15T13:56:47.315Z,97013.00
2019-01-15T13:59:38.671Z,97018.00
2019-01-15T14:02:37.968Z,97012.00
2019-01-15T14:05:38.452Z,97015.00
2019-01-15T14:08:38.220Z,97020.00
2019-01-15T14:11:40.698Z,96999.00
2019-01-15T14:14:34.542Z,97003.00
2019-01-15T14:17:14.519Z,97013.00
2019-01-15T14:20:00.322Z,97022.00
2019-01-15T14:22:46.060Z,97005.00
2019-01-15T14:25:31.826Z,97004.00
2019-01-15T14:28:17.437Z,97004.00
2019-01-15T14:31:13.486Z,97009.00
2019-01-15T14:34:03.776Z,97010.00
2019-01-15T14:36:49.688Z,97002.00
2019-01-15T14:39:35.452Z,96998.00
2019-01-15T14:42:21.064Z,96996.00
2019-01-15T14:45:17.080Z,96992.00
2019-01-15T14:48:09.197Z,96979.00
2019-01-15T14:50:55.198Z,96966.00
2019-01-15T14:53:54.295Z,96962.00
2019-01-15T14:56:38.530Z,96966.00
2019-01-15T14:59:22.080Z,96967.00
2019-01-15T15:02:15.694Z,96972.00
2019-01-15T15:05:14.720Z,96966.00
2019-01-15T15:08:17.189Z,96967.00
2019-01-15T15:11:10.956Z,96958.00
2019-01-15T15:13:56.511Z,96961.00
2019-01-15T15:16:40.276Z,96959.00
2019-01-15T15:19:25.838Z,96957.00
2019-01-15T15:22:11.691Z,96955.00
2019-01-15T15:24:55.916Z,96954.00
2019-01-15T15:27:43.433Z,96943.00
2019-01-15T15:30:31.447Z,96936.00
2019-01-15T15:33:17.759Z,96927.00
2019-01-15T15:36:03.680Z,96926.00
2019-01-15T15:38:42.530Z,96947.00
2019-01-15T15:41:30.111Z,96937.00
2019-01-15T15:44:17.792Z,96953.00
2019-01-15T15:47:13.922Z,96950.00
2019-01-15T15:49:59.582Z,96951.00
2019-01-15T15:52:53.332Z,96945.00
2019-01-15T15:55:39.448Z,96957.00
2019-01-15T15:58:15.367Z,96953.00
2019-01-15T16:01:00.708Z,96968.00
2019-01-15T16:03:37.744Z,96963.00
2019-01-15T16:06:23.592Z,96956.00
2019-01-15T16:08:58.840Z,96984.00
2019-01-15T16:11:46.214Z,96975.00
2019-01-15T16:14:22.405Z,96968.00
2019-01-15T16:17:13.989Z,96984.00
2019-01-15T16:20:06.559Z,96975.00
2019-01-15T16:23:02.908Z,96968.00
2019-01-15T16:25:45.088Z,96979.00
2019-01-15T16:28:26.293Z,96960.00
2019-01-15T16:31:13.745Z,96970.00
2019-01-15T16:33:51.368Z,96970.00
2019-01-15T16:36:34.864Z,96984.00
2019-01-15T16:39:41.308Z,96962.00
2019-01-15T16:42:32.685Z,96940.00
2019-01-15T16:45:18.630Z,96947.00
2019-01-15T16:48:09.125Z,96958.00
2019-01-15T16:50:59.315Z,96957.00
2019-01-15T16:53:36.301Z,96960.00
2019-01-15T16:56:27.882Z,96956.00
2019-01-15T16:59:30.173Z,96961.00
2019-01-15T17:02:17.653Z,96975.00
2019-01-15T17:05:09.859Z,96971.00
2019-01-15T17:07:54.052Z,96981.00
2019-01-15T17:10:44.343Z,96974.00
2019-01-15T17:13:32.394Z,96965.00
2019-01-15T17:16:16.283Z,96973.00
2019-01-15T17:19:08.625Z,96970.00
2019-01-15T17:21:48.020Z,96956.00
2019-01-15T17:24:34.279Z,96962.00
2019-01-15T17:27:27.408Z,96977.00
2019-01-15T17:30:23.562Z,96971.00
2019-01-15T17:33:14.021Z,96965.00
2019-01-15T17:36:00.217Z,96965.00
2019-01-15T17:38:47.664Z,96971.00
2019-01-15T17:41:24.037Z,96976.00
2019-01-15T17:44:14.402Z,96970.00
2019-01-15T17:47:10.838Z,96970.00
2019-01-15T17:49:59.984Z,96984.00
2019-01-15T17:52:45.663Z,96986.00
2019-01-15T17:55:35.775Z,96983.00
2019-01-15T17:58:17.592Z,96984.00
2019-01-15T18:01:03.499Z,96978.00
2019-01-15T18:03:53.339Z,96976.00
2019-01-15T18:06:37.299Z,96973.00
2019-01-15T18:09:29.992Z,96972.00
2019-01-15T18:12:15.777Z,96978.00
2019-01-15T18:15:01.478Z,96978.00
2019-01-15T18:17:47.232Z,96975.00
2019-01-15T18:20:36.182Z,96972.00
2019-01-15T18:23:26.474Z,96966.00
2019-01-15T18:26:31.830Z,96963.00
2019-01-15T18:29:22.582Z,96976.00
2019-01-15T18:32:10.293Z,96963.00
2019-01-15T18:34:48.345Z,96968.00
2019-01-15T18:37:41.525Z,96959.00
2019-01-15T18:40:36.872Z,96948.00
2019-01-15T18:43:22.601Z,96960.00
2019-01-15T18:46:06.067Z,96961.00
2019-01-15T18:48:54.492Z,96963.00
2019-01-15T18:51:59.838Z,96967.00
2019-01-15T18:55:02.312Z,96964.00
2019-01-15T18:57:56.173Z,96968.00
2019-01-15T19:00:49.807Z,96960.00
2019-01-15T19:03:40.499Z,96959.00
2019-01-15T19:06:27.927Z,96962.00
2019-01-15T19:09:05.326Z,96954.00
2019-01-15T19:11:54.539Z,96960.00
2019-01-15T19:14:43.591Z,96972.00
2019-01-15T19:17:36.907Z,96948.00
2019-01-15T19:20:32.983Z,96953.00
2019-01-15T19:23:09.699Z,96964.00
2019-01-15T19:25:59.187Z,96966.00
2019-01-15T19:28:53.819Z,96966.00
2019-01-15T19:31:50.016Z,96967.00
2019-01-15T19:34:37.545Z,96957.00
2019-01-15T19:37:31.515Z,96965.00
2019-01-15T19:40:10.781Z,96968.00
2019-01-15T19:42:56.729Z,96956.00
2019-01-15T19:45:35.914Z,96956.00
2019-01-15T19:48:28.996Z,96947.00
2019-01-15T19:51:18.594Z,96936.00
2019-01-15T19:54:14.711Z,96946.00
2019-01-15T19:56:54.405Z,96932.00
2019-01-15T19:59:38.360Z,96943.00
2019-01-15T20:02:28.534Z,96948.00
2019-01-15T20:05:28.772Z,96949.00
2019-01-15T20:08:16.628Z,96925.00
2019-01-15T20:11:02.670Z,96945.00
2019-01-15T20:13:52.797Z,96946.00
2019-01-15T20:16:41.921Z,96941.00
2019-01-15T20:19:47.145Z,96940.00
2019-01-15T20:22:33.482Z,96946.00
2019-01-15T20:25:17.746Z,96953.00
2019-01-15T20:28:11.317Z,96945.00
2019-01-15T20:30:58.914Z,96940.00
2019-01-15T20:33:44.282Z,96958.00
2019-01-15T20:36:26.769Z,96953.00
2019-01-15T20:39:29.328Z,96955.00
2019-01-15T20:42:15.002Z,96952.00
2019-01-15T20:45:00.779Z,96959.00
2019-01-15T20:47:42.237Z,96950.00
2019-01-15T20:50:35.543Z,96965.00
2019-01-15T20:53:11.018Z,96966.00
2019-01-15T20:56:10.760Z,96966.00
2019-01-15T20:58:57.030Z,96967.00
2019-01-15T21:01:40.695Z,96976.00
2019-01-15T21:04:26.571Z,96976.00
2019-01-15T21:07:03.574Z,96967.00
2019-01-15T21:09:49.451Z,96980.00
2019-01-15T21:12:31.521Z,96979.00
2019-01-15T21:15:17.527Z,96972.00
2019-01-15T21:18:02.655Z,96976.00
2019-01-15T21:20:48.427Z,96975.00
2019-01-15T21:23:36.149Z,96983.00
2019-01-15T21:26:15.391Z,96966.00
2019-01-15T21:29:02.861Z,96971.00
2019-01-15T21:31:50.338Z,96974.00
2019-01-15T21:34:38.047Z,96966.00
2019-01-15T21:37:22.131Z,96968.00
2019-01-15T21:40:13.133Z,96965.00
2019-01-15T21:42:57.955Z,96969.00
2019-01-15T21:45:43.932Z,96958.00
2019-01-15T21:48:29.768Z,96968.00
2019-01-15T21:51:17.638Z,96950.00
2019-01-15T21:54:03.372Z,96969.00
2019-01-15T21:56:53.799Z,96974.00
2019-01-15T21:59:41.526Z,96949.00
2019-01-15T22:02:28.921Z,96944.00
2019-01-15T22:05:31.084Z,96959.00
2019-01-15T22:08:36.427Z,96950.00
2019-01-15T22:11:23.363Z,96950.00
2019-01-15T22:14:13.501Z,96953.00
2019-01-15T22:16:55.358Z,96984.00
2019-01-15T22:19:43.068Z,96967.00
2019-01-15T22:22:33.499Z,96947.00
2019-01-15T22:25:20.953Z,96969.00
2019-01-15T22:28:09.011Z,96952.00
2019-01-15T22:31:14.490Z,96946.00
2019-01-15T22:34:07.625Z,96944.00
2019-01-15T22:37:00.697Z,96942.00
2019-01-15T22:39:50.896Z,96938.00
2019-01-15T22:42:37.013Z,96945.00
2019-01-15T22:45:32.326Z,96950.00
2019-01-15T22:48:18.051Z,96959.00
2019-01-15T22:51:05.765Z,96942.00
2019-01-15T22:53:44.980Z,96942.00
2019-01-15T22:56:32.364Z,96952.00
2019-01-15T22:59:17.945Z,96950.00
2019-01-15T23:02:14.002Z,96952.00
2019-01-15T23:04:58.524Z,96948.00
2019-01-15T23:07:55.169Z,96941.00
2019-01-15T23:10:35.157Z,96933.00
2019-01-15T23:13:31.673Z,96942.00
2019-01-15T23:16:05.102Z,96950.00
2019-01-15T23:19:02.291Z,96940.00
2019-01-15T23:21:42.726Z,96937.00
2019-01-15T23:24:41.947Z,96945.00
2019-01-15T23:27:32.377Z,96939.00
2019-01-15T23:30:18.108Z,96925.00
2019-01-15T23:33:11.490Z,96930.00
2019-01-15T23:35:52.875Z,96926.00
2019-01-15T23:38:38.634Z,96941.00
2019-01-15T23:41:33.992Z,96944.00
2019-01-15T23:44:19.750Z,96946.00
2019-01-15T23:46:55.577Z,96939.00
2019-01-15T23:49:45.885Z,96934.00
2019-01-15T23:52:29.893Z,96937.00
2019-01-15T23:55:08.613Z,96938.00
2019-01-15T23:57:56.777Z,96945.00
